createdAt,value
2022-07-25T00:01:08.776Z,98406.66
2022-07-25T00:03:37.558Z,98398.91
2022-07-25T00:06:06.198Z,98403.38
2022-07-25T00:08:33.245Z,98400.75
2022-07-25T00:11:07.667Z,98407.03
2022-07-25T00:13:36.937Z,98400.91
2022-07-25T00:16:05.155Z,98391.34
2022-07-25T00:18:32.249Z,98393.16
2022-07-25T00:20:59.284Z,98398.44
2022-07-25T00:23:26.329Z,98397.63
2022-07-25T00:25:53.352Z,98394.19
2022-07-25T00:28:20.459Z,98401.28
2022-07-25T00:30:48.004Z,98395.16
2022-07-25T00:33:15.145Z,98397.97
2022-07-25T00:35:42.206Z,98400.63
2022-07-25T00:38:09.295Z,98394.53
2022-07-25T00:40:36.368Z,98402.44
2022-07-25T00:43:05.671Z,98390.25
2022-07-25T00:45:35.583Z,98394.72
2022-07-25T00:48:14.176Z,98387.78
2022-07-25T00:50:41.225Z,98386.97
2022-07-25T00:53:11.142Z,98385.31
2022-07-25T00:55:38.184Z,98388.78
2022-07-25T00:58:09.739Z,98381.88
2022-07-25T01:00:36.814Z,98381.06
2022-07-25T01:03:03.939Z,98383.69
2022-07-25T01:05:31.033Z,98384.66
2022-07-25T01:07:58.376Z,98382.03
2022-07-25T01:10:26.759Z,98381.41
2022-07-25T01:12:56.246Z,98378.75
2022-07-25T01:15:23.299Z,98377.94
2022-07-25T01:17:50.353Z,98373.66
2022-07-25T01:20:17.417Z,98368.38
2022-07-25T01:22:45.546Z,98364.91
2022-07-25T01:25:15.884Z,98371.19
2022-07-25T01:27:44.850Z,98362.47
2022-07-25T01:30:11.876Z,98356.38
2022-07-25T01:32:47.854Z,98352.91
2022-07-25T01:35:16.177Z,98355.56
2022-07-25T01:37:45.547Z,98338.88
2022-07-25T01:40:15.470Z,98348.63
2022-07-25T01:42:42.519Z,98348.00
2022-07-25T01:45:09.624Z,98343.53
2022-07-25T01:47:36.661Z,98343.53
2022-07-25T01:50:03.689Z,98350.63
2022-07-25T01:52:32.427Z,98344.53
2022-07-25T01:54:59.531Z,98347.16
2022-07-25T01:57:31.359Z,98347.16
2022-07-25T02:00:00.215Z,98342.88
2022-07-25T02:02:28.368Z,98337.78
2022-07-25T02:04:59.480Z,98339.41
2022-07-25T02:07:26.548Z,98339.59
2022-07-25T02:09:56.888Z,98332.50
2022-07-25T02:12:24.103Z,98341.44
2022-07-25T02:14:52.202Z,98339.75
2022-07-25T02:17:19.439Z,98340.59
2022-07-25T02:19:52.089Z,98327.56
2022-07-25T02:22:22.576Z,98338.13
2022-07-25T02:24:56.974Z,98338.94
2022-07-25T02:27:24.081Z,98336.31
2022-07-25T02:29:54.703Z,98336.50
2022-07-25T02:32:24.360Z,98335.69
2022-07-25T02:34:57.025Z,98343.59
2022-07-25T02:37:24.054Z,98338.47
2022-07-25T02:39:51.085Z,98335.84
2022-07-25T02:42:18.208Z,98341.13
2022-07-25T02:44:45.230Z,98341.31
2022-07-25T02:47:15.774Z,98350.03
2022-07-25T02:49:44.219Z,98338.66
2022-07-25T02:52:15.728Z,98344.94
2022-07-25T02:54:46.099Z,98347.59
2022-07-25T02:57:16.028Z,98346.72
2022-07-25T02:59:43.042Z,98346.72
2022-07-25T03:02:12.366Z,98344.94
2022-07-25T03:04:39.396Z,98348.56
2022-07-25T03:07:06.462Z,98345.91
2022-07-25T03:09:35.795Z,98340.84
2022-07-25T03:12:05.863Z,98340.84
2022-07-25T03:14:32.932Z,98341.00
2022-07-25T03:17:00.075Z,98341.81
2022-07-25T03:19:32.362Z,98340.13
2022-07-25T03:21:59.391Z,98330.44
2022-07-25T03:24:27.755Z,98328.78
2022-07-25T03:26:57.394Z,98324.50
2022-07-25T03:29:25.640Z,98321.88
2022-07-25T03:31:55.798Z,98322.69
2022-07-25T03:34:22.910Z,98315.78
2022-07-25T03:36:51.370Z,98311.50
2022-07-25T03:39:19.207Z,98311.50
2022-07-25T03:41:46.559Z,98308.03
2022-07-25T03:44:13.573Z,98305.56
2022-07-25T03:46:43.264Z,98298.47
2022-07-25T03:49:11.514Z,98290.56
2022-07-25T03:51:39.949Z,98295.03
2022-07-25T03:54:08.854Z,98289.94
2022-07-25T03:56:36.970Z,98283.84
2022-07-25T03:59:13.082Z,98287.47
2022-07-25T04:01:40.180Z,98290.09
2022-07-25T04:04:07.925Z,98289.28
2022-07-25T04:06:35.297Z,98296.38
2022-07-25T04:09:02.344Z,98292.91
2022-07-25T04:11:30.977Z,98282.38
2022-07-25T04:13:58.021Z,98283.19
2022-07-25T04:16:25.136Z,98275.47
2022-07-25T04:18:59.581Z,98282.53
2022-07-25T04:21:28.683Z,98280.75
2022-07-25T04:23:56.922Z,98277.25
2022-07-25T04:26:23.950Z,98275.63
2022-07-25T04:28:50.989Z,98273.81
2022-07-25T04:31:21.635Z,98272.00
2022-07-25T04:33:48.749Z,98273.81
2022-07-25T04:36:18.733Z,98273.00
2022-07-25T04:38:45.855Z,98268.72
2022-07-25T04:41:13.025Z,98273.19
2022-07-25T04:43:43.614Z,98273.19
2022-07-25T04:46:13.526Z,98272.38
2022-07-25T04:48:40.623Z,98276.78
2022-07-25T04:51:11.732Z,98270.69
2022-07-25T04:53:38.785Z,98268.06
2022-07-25T04:56:09.365Z,98260.16
2022-07-25T04:58:36.472Z,98261.16
2022-07-25T05:01:07.129Z,98253.25
2022-07-25T05:06:15.268Z,98253.25
2022-07-25T05:08:45.027Z,98243.72
2022-07-25T05:11:14.936Z,98247.97
2022-07-25T05:13:41.966Z,98241.88
2022-07-25T05:16:11.571Z,98243.72
2022-07-25T05:18:41.202Z,98243.72
2022-07-25T05:21:08.227Z,98242.91
2022-07-25T05:23:35.388Z,98249.81
2022-07-25T05:26:02.442Z,98249.13
2022-07-25T05:28:30.612Z,98252.63
2022-07-25T05:30:57.640Z,98255.25
2022-07-25T05:33:25.036Z,98249.13
2022-07-25T05:35:52.098Z,98248.31
2022-07-25T05:38:19.204Z,98248.31
2022-07-25T05:40:49.170Z,98249.13
2022-07-25T05:43:16.252Z,98240.41
2022-07-25T05:45:44.247Z,98243.06
2022-07-25T05:48:11.345Z,98244.88
2022-07-25T05:50:38.379Z,98250.16
2022-07-25T05:53:05.432Z,98247.50
2022-07-25T05:55:34.962Z,98246.69
2022-07-25T05:58:09.817Z,98247.50
2022-07-25T06:00:36.859Z,98238.78
2022-07-25T06:03:04.197Z,98241.41
2022-07-25T06:05:31.429Z,98241.41
2022-07-25T06:08:01.482Z,98245.88
2022-07-25T06:10:30.228Z,98249.31
2022-07-25T06:12:57.289Z,98243.25
2022-07-25T06:15:27.000Z,98246.69
2022-07-25T06:17:54.794Z,98246.69
2022-07-25T06:20:22.188Z,98243.25
2022-07-25T06:22:49.223Z,98244.88
2022-07-25T06:25:16.355Z,98242.25
2022-07-25T06:27:43.395Z,98235.97
2022-07-25T06:30:19.797Z,98238.59
2022-07-25T06:32:47.426Z,98236.97
2022-07-25T06:35:16.958Z,98232.50
2022-07-25T06:37:44.047Z,98232.50
2022-07-25T06:40:11.073Z,98221.00
2022-07-25T06:42:38.101Z,98222.78
2022-07-25T06:45:05.297Z,98228.91
2022-07-25T06:47:35.849Z,98224.44
2022-07-25T06:50:03.256Z,98221.81
2022-07-25T06:52:31.599Z,98223.44
2022-07-25T06:55:01.530Z,98213.72
2022-07-25T06:57:29.908Z,98210.06
2022-07-25T06:59:56.930Z,98205.59
2022-07-25T07:02:23.996Z,98196.72
2022-07-25T07:04:53.020Z,98203.63
2022-07-25T07:07:21.102Z,98202.63
2022-07-25T07:09:48.128Z,98201.66
2022-07-25T07:12:15.181Z,98205.91
2022-07-25T07:14:44.449Z,98204.91
2022-07-25T07:17:13.701Z,98206.72
2022-07-25T07:19:44.536Z,98204.75
2022-07-25T07:22:15.253Z,98203.75
2022-07-25T07:24:44.199Z,98200.91
2022-07-25T07:27:12.234Z,98197.28
2022-07-25T07:29:39.295Z,98191.84
2022-07-25T07:32:07.102Z,98198.56
2022-07-25T07:34:38.316Z,98191.47
2022-07-25T07:37:05.378Z,98193.97
2022-07-25T07:39:32.406Z,98192.13
2022-07-25T07:41:59.526Z,98190.16
2022-07-25T07:44:26.576Z,98183.88
2022-07-25T07:46:53.746Z,98178.41
2022-07-25T07:49:20.910Z,98171.97
2022-07-25T07:51:47.984Z,98172.78
2022-07-25T07:54:33.626Z,98171.81
2022-07-25T07:57:00.703Z,98162.88
2022-07-25T07:59:27.778Z,98154.16
2022-07-25T08:01:54.845Z,98157.41
2022-07-25T08:04:21.913Z,98156.41
2022-07-25T08:06:52.168Z,98154.59
2022-07-25T08:09:19.489Z,98157.06
2022-07-25T08:11:46.543Z,98146.31
2022-07-25T08:14:13.576Z,98143.50
2022-07-25T08:16:40.748Z,98131.94
2022-07-25T08:19:07.901Z,98132.75
2022-07-25T08:21:36.093Z,98135.25
2022-07-25T08:24:03.405Z,98131.59
2022-07-25T08:26:33.896Z,98124.50
2022-07-25T08:29:18.088Z,98131.22
2022-07-25T08:31:46.094Z,98126.78
2022-07-25T08:34:13.205Z,98121.28
2022-07-25T08:36:40.248Z,98131.69
2022-07-25T08:39:07.314Z,98130.69
2022-07-25T08:41:34.497Z,98117.28
2022-07-25T08:44:01.520Z,98121.59
2022-07-25T08:46:30.326Z,98114.66
2022-07-25T08:48:58.640Z,98119.75
2022-07-25T08:51:25.684Z,98107.38
2022-07-25T08:53:52.734Z,98110.84
2022-07-25T08:56:22.687Z,98102.72
2022-07-25T08:58:51.974Z,98097.28
2022-07-25T09:01:19.068Z,98091.81
2022-07-25T09:03:46.505Z,98097.75
2022-07-25T09:06:13.547Z,98082.53
2022-07-25T09:08:40.634Z,98088.00
2022-07-25T09:11:07.671Z,98076.44
2022-07-25T09:13:38.621Z,98083.53
2022-07-25T09:16:06.082Z,98084.34
2022-07-25T09:18:33.814Z,98074.59
2022-07-25T09:21:00.900Z,98067.50
2022-07-25T09:23:28.430Z,98068.34
2022-07-25T09:25:55.445Z,98068.34
2022-07-25T09:28:23.520Z,98060.44
2022-07-25T09:30:51.656Z,98061.03
2022-07-25T09:33:18.795Z,98050.69
2022-07-25T09:35:45.809Z,98055.41
2022-07-25T09:38:14.101Z,98049.94
2022-07-25T09:40:41.203Z,98048.13
2022-07-25T09:43:08.237Z,98048.94
2022-07-25T09:45:35.308Z,98046.09
2022-07-25T09:48:02.351Z,98042.66
2022-07-25T09:51:40.539Z,98036.72
2022-07-25T09:54:08.098Z,98033.59
2022-07-25T09:56:35.910Z,98031.88
2022-07-25T09:59:03.181Z,98029.53
2022-07-25T10:01:30.352Z,98029.75
2022-07-25T10:03:57.559Z,98019.00
2022-07-25T10:06:25.146Z,98017.81
2022-07-25T10:08:52.337Z,98024.34
2022-07-25T10:11:19.487Z,98018.06
2022-07-25T10:13:47.707Z,98011.41
2022-07-25T10:16:14.918Z,98010.41
2022-07-25T10:18:44.937Z,98017.09
2022-07-25T10:21:25.627Z,98013.28
2022-07-25T10:23:54.280Z,97999.91
2022-07-25T10:26:21.461Z,98001.31
2022-07-25T10:28:51.056Z,98001.16
2022-07-25T10:31:18.528Z,97993.03
2022-07-25T10:33:45.707Z,97993.66
2022-07-25T10:36:12.834Z,97996.09
2022-07-25T10:38:42.756Z,97985.34
2022-07-25T10:41:10.551Z,97984.34
2022-07-25T10:43:37.858Z,97981.50
2022-07-25T10:46:04.999Z,97981.28
2022-07-25T10:48:33.258Z,97976.84
2022-07-25T10:51:00.501Z,97972.38
2022-07-25T10:53:27.653Z,97971.16
2022-07-25T10:56:05.328Z,97965.06
2022-07-25T10:58:33.335Z,97965.50
2022-07-25T11:01:00.456Z,97967.16
2022-07-25T11:03:27.601Z,97964.31
2022-07-25T11:05:54.798Z,97971.22
2022-07-25T11:08:22.845Z,97957.19
2022-07-25T11:10:50.142Z,97959.47
2022-07-25T11:13:17.253Z,97957.63
2022-07-25T11:15:44.350Z,97964.38
2022-07-25T11:18:12.227Z,97950.78
2022-07-25T11:20:39.384Z,97941.66
2022-07-25T11:23:06.875Z,97940.44
2022-07-25T11:25:33.994Z,97942.88
2022-07-25T11:28:01.155Z,97936.63
2022-07-25T11:30:31.289Z,97932.75
2022-07-25T11:32:58.419Z,97926.25
2022-07-25T11:35:25.605Z,97922.59
2022-07-25T11:37:52.856Z,97923.63
2022-07-25T11:40:20.497Z,97919.16
2022-07-25T11:42:48.040Z,97911.84
2022-07-25T11:45:15.148Z,97895.16
2022-07-25T11:47:42.280Z,97896.81
2022-07-25T11:50:14.791Z,97895.56
2022-07-25T11:52:45.890Z,97893.56
2022-07-25T11:55:13.042Z,97887.25
2022-07-25T11:57:40.184Z,97890.72
2022-07-25T12:00:07.360Z,97892.97
2022-07-25T12:02:36.803Z,97884.88
2022-07-25T12:05:04.126Z,97883.84
2022-07-25T12:07:31.256Z,97882.00
2022-07-25T12:09:58.375Z,97879.16
2022-07-25T12:12:25.488Z,97875.69
2022-07-25T12:14:52.695Z,97865.75
2022-07-25T12:17:19.890Z,97870.84
2022-07-25T12:19:49.779Z,97874.13
2022-07-25T12:22:16.890Z,97865.16
2022-07-25T12:24:44.019Z,97868.44
2022-07-25T12:27:11.137Z,97862.94
2022-07-25T12:29:38.237Z,97861.31
2022-07-25T12:32:05.398Z,97867.19
2022-07-25T12:34:32.536Z,97853.97
2022-07-25T12:36:59.643Z,97852.78
2022-07-25T12:39:26.784Z,97851.97
2022-07-25T12:41:54.415Z,97851.56
2022-07-25T12:44:21.536Z,97837.50
2022-07-25T12:46:49.604Z,97833.06
2022-07-25T12:49:17.223Z,97851.34
2022-07-25T12:51:44.477Z,97832.63
2022-07-25T12:54:11.602Z,97837.75
2022-07-25T12:56:38.791Z,97837.53
2022-07-25T12:59:06.143Z,97835.53
2022-07-25T13:01:33.483Z,97824.94
2022-07-25T13:04:00.627Z,97822.91
2022-07-25T13:06:27.841Z,97822.72
2022-07-25T13:08:54.997Z,97818.22
2022-07-25T13:11:22.116Z,97822.50
2022-07-25T13:13:49.231Z,97813.34
2022-07-25T13:16:16.427Z,97815.78
2022-07-25T13:18:44.488Z,97813.16
2022-07-25T13:21:11.640Z,97815.78
2022-07-25T13:23:38.769Z,97811.13
2022-07-25T13:26:05.936Z,97811.94
2022-07-25T13:28:33.109Z,97818.69
2022-07-25T13:31:01.893Z,97809.72
2022-07-25T13:33:29.414Z,97805.88
2022-07-25T13:35:56.556Z,97813.38
2022-07-25T13:38:23.681Z,97801.59
2022-07-25T13:40:52.507Z,97796.09
2022-07-25T13:43:22.799Z,97816.69
2022-07-25T13:45:49.959Z,97789.78
2022-07-25T13:48:29.426Z,97808.94
2022-07-25T13:50:57.726Z,97816.47
2022-07-25T13:53:29.705Z,97807.91
2022-07-25T13:55:58.314Z,97812.00
2022-07-25T13:58:25.452Z,97806.50
2022-07-25T14:00:52.638Z,97817.69
2022-07-25T14:03:19.809Z,97805.06
2022-07-25T14:05:47.249Z,97810.97
2022-07-25T14:08:14.392Z,97811.97
2022-07-25T14:10:41.508Z,97822.56
2022-07-25T14:13:08.694Z,97813.63
2022-07-25T14:15:35.794Z,97810.97
2022-07-25T14:18:02.942Z,97816.28
2022-07-25T14:20:30.044Z,97809.16
2022-07-25T14:22:57.162Z,97806.91
2022-07-25T14:25:24.370Z,97802.63
2022-07-25T14:27:51.563Z,97796.72
2022-07-25T14:30:19.399Z,97797.53
2022-07-25T14:32:47.182Z,97794.88
2022-07-25T14:35:14.408Z,97799.78
2022-07-25T14:37:41.519Z,97798.97
2022-07-25T14:40:11.112Z,97809.75
2022-07-25T14:42:38.690Z,97798.75
2022-07-25T14:45:05.916Z,97803.81
2022-07-25T14:47:33.049Z,97793.88
2022-07-25T14:50:00.203Z,97797.31
2022-07-25T14:52:27.407Z,97808.72
2022-07-25T14:54:54.841Z,97807.31
2022-07-25T14:57:21.999Z,97804.22
2022-07-25T14:59:49.127Z,97806.06
2022-07-25T15:02:16.383Z,97813.19
2022-07-25T15:04:43.603Z,97800.78
2022-07-25T15:07:10.823Z,97806.69
2022-07-25T15:09:38.117Z,97808.94
2022-07-25T15:12:05.234Z,97797.13
2022-07-25T15:14:32.379Z,97795.06
2022-07-25T15:16:59.541Z,97795.06
2022-07-25T15:19:26.878Z,97798.53
2022-07-25T15:21:54.135Z,97799.97
2022-07-25T15:24:23.588Z,97799.38
2022-07-25T15:26:54.328Z,97787.75
2022-07-25T15:29:21.503Z,97780.84
2022-07-25T15:31:48.726Z,97783.69
2022-07-25T15:34:15.980Z,97784.47
2022-07-25T15:36:43.174Z,97786.72
2022-07-25T15:39:10.755Z,97773.50
2022-07-25T15:41:38.049Z,97777.97
2022-07-25T15:44:05.620Z,97779.19
2022-07-25T15:46:33.068Z,97785.91
2022-07-25T15:49:00.462Z,97782.66
2022-07-25T15:51:27.694Z,97783.06
2022-07-25T15:53:54.831Z,97782.06
2022-07-25T15:56:22.005Z,97795.28
2022-07-25T15:58:52.141Z,97789.38
2022-07-25T16:01:19.350Z,97790.81
2022-07-25T16:03:46.571Z,97781.44
2022-07-25T16:06:18.654Z,97782.06
2022-07-25T16:08:46.112Z,97784.88
2022-07-25T16:11:13.241Z,97793.25
2022-07-25T16:13:40.617Z,97797.13
2022-07-25T16:16:07.850Z,97794.47
2022-07-25T16:18:35.127Z,97797.94
2022-07-25T16:21:03.193Z,97808.53
2022-07-25T16:23:36.211Z,97803.63
2022-07-25T16:26:05.560Z,97804.03
2022-07-25T16:28:42.116Z,97812.22
2022-07-25T16:31:09.637Z,97803.63
2022-07-25T16:33:37.891Z,97793.84
2022-07-25T16:36:05.045Z,97783.69
2022-07-25T16:38:32.149Z,97775.72
2022-07-25T16:40:59.636Z,97777.38
2022-07-25T16:43:26.757Z,97774.13
2022-07-25T16:45:53.869Z,97771.88
2022-07-25T16:48:21.046Z,97774.53
2022-07-25T16:50:48.282Z,97775.31
2022-07-25T16:53:15.415Z,97769.22
2022-07-25T16:55:42.534Z,97770.66
2022-07-25T16:58:09.660Z,97770.25
2022-07-25T17:00:37.112Z,97767.59
2022-07-25T17:03:04.429Z,97760.47
2022-07-25T17:05:31.561Z,97761.47
2022-07-25T17:07:59.629Z,97753.75
2022-07-25T17:10:26.978Z,97752.53
2022-07-25T17:12:54.145Z,97752.72
2022-07-25T17:15:21.273Z,97752.72
2022-07-25T17:17:48.493Z,97753.13
2022-07-25T17:20:15.660Z,97753.34
2022-07-25T17:22:42.789Z,97762.91
2022-07-25T17:25:09.922Z,97762.50
2022-07-25T17:27:37.351Z,97761.47
2022-07-25T17:30:04.502Z,97760.47
2022-07-25T17:32:31.613Z,97760.25
2022-07-25T17:34:58.777Z,97763.53
2022-07-25T17:37:27.806Z,97769.81
2022-07-25T17:39:54.998Z,97774.91
2022-07-25T17:42:25.180Z,97775.09
2022-07-25T17:44:52.380Z,97778.38
2022-07-25T17:47:19.492Z,97781.03
2022-07-25T17:49:46.660Z,97783.88
2022-07-25T17:52:15.630Z,97779.59
2022-07-25T17:54:42.766Z,97784.88
2022-07-25T17:57:09.959Z,97781.44
2022-07-25T17:59:37.116Z,97786.72
2022-07-25T18:02:04.313Z,97783.50
2022-07-25T18:04:31.489Z,97783.91
2022-07-25T18:06:58.606Z,97780.44
2022-07-25T18:09:25.733Z,97781.25
2022-07-25T18:11:54.686Z,97777.97
2022-07-25T18:14:21.795Z,97780.84
2022-07-25T18:16:48.922Z,97786.13
2022-07-25T18:19:16.060Z,97787.97
2022-07-25T18:21:43.674Z,97781.88
2022-07-25T18:24:11.403Z,97785.50
2022-07-25T18:26:38.999Z,97776.75
2022-07-25T18:29:06.101Z,97777.78
2022-07-25T18:31:33.330Z,97779.63
2022-07-25T18:34:00.609Z,97778.59
2022-07-25T18:36:28.079Z,97777.97
2022-07-25T18:38:55.270Z,97782.47
2022-07-25T18:41:30.398Z,97780.84
2022-07-25T18:43:57.806Z,97787.75
2022-07-25T18:46:25.090Z,97787.16
2022-07-25T18:48:52.533Z,97781.88
2022-07-25T18:51:20.995Z,97789.19
2022-07-25T18:53:48.856Z,97790.00
2022-07-25T18:56:18.373Z,97793.44
2022-07-25T18:58:45.500Z,97798.97
2022-07-25T19:01:12.678Z,97799.97
2022-07-25T19:03:40.875Z,97799.97
2022-07-25T19:06:08.102Z,97807.31
2022-07-25T19:08:35.360Z,97800.38
2022-07-25T19:11:02.486Z,97802.22
2022-07-25T19:16:16.887Z,97820.13
2022-07-25T19:18:44.098Z,97823.78
2022-07-25T19:21:11.477Z,97827.47
2022-07-25T19:23:38.607Z,97830.94
2022-07-25T19:26:05.847Z,97831.94
2022-07-25T19:28:33.121Z,97833.97
2022-07-25T19:31:00.377Z,97835.19
2022-07-25T19:33:34.670Z,97834.19
2022-07-25T19:36:04.150Z,97841.31
2022-07-25T19:38:31.445Z,97867.16
2022-07-25T19:40:59.112Z,97878.53
2022-07-25T19:43:26.240Z,97889.94
2022-07-25T19:45:53.468Z,97900.53
2022-07-25T19:48:24.008Z,97910.94
2022-07-25T19:50:51.392Z,97903.97
2022-07-25T19:53:18.808Z,97922.50
2022-07-25T19:55:45.977Z,97916.22
2022-07-25T19:58:13.107Z,97909.91
2022-07-25T20:00:40.271Z,97915.41
2022-07-25T20:03:07.410Z,97916.22
2022-07-25T20:05:34.556Z,97925.16
2022-07-25T20:08:01.685Z,97926.00
2022-07-25T20:10:28.848Z,97933.94
2022-07-25T20:13:01.101Z,97936.75
2022-07-25T20:15:28.688Z,97935.75
2022-07-25T20:17:56.896Z,97930.66
2022-07-25T20:20:24.458Z,97943.47
2022-07-25T20:22:54.595Z,97953.03
2022-07-25T20:25:22.007Z,97941.63
2022-07-25T20:27:50.249Z,97962.00
2022-07-25T20:30:17.417Z,97962.00
2022-07-25T20:32:44.802Z,97969.31
2022-07-25T20:35:11.904Z,97974.59
2022-07-25T20:37:39.133Z,97988.47
2022-07-25T20:40:06.902Z,97981.53
2022-07-25T20:42:35.861Z,97980.72
2022-07-25T20:45:03.623Z,97986.03
2022-07-25T20:47:30.729Z,97983.78
2022-07-25T20:49:59.297Z,97998.66
2022-07-25T20:52:27.914Z,98003.53
2022-07-25T20:54:55.049Z,98006.16
2022-07-25T20:57:22.631Z,98016.13
2022-07-25T20:59:50.830Z,98022.22
2022-07-25T21:02:17.981Z,98021.63
2022-07-25T21:04:46.500Z,98019.78
2022-07-25T21:07:13.614Z,98016.31
2022-07-25T21:09:40.726Z,98026.09
2022-07-25T21:12:07.826Z,98028.75
2022-07-25T21:14:34.950Z,98037.50
2022-07-25T21:17:02.195Z,98045.66
2022-07-25T21:19:29.389Z,98052.56
2022-07-25T21:21:56.492Z,98049.91
2022-07-25T21:24:23.625Z,98061.09
2022-07-25T21:26:51.624Z,98045.22
2022-07-25T21:29:19.064Z,98051.31
2022-07-25T21:31:46.383Z,98053.38
2022-07-25T21:34:13.604Z,98061.31
2022-07-25T21:36:40.789Z,98058.66
2022-07-25T21:39:08.147Z,98066.59
2022-07-25T21:41:35.567Z,98072.28
2022-07-25T21:44:05.618Z,98069.63
2022-07-25T21:46:32.905Z,98080.22
2022-07-25T21:49:25.481Z,98086.53
2022-07-25T21:52:06.051Z,98084.91
2022-07-25T21:54:33.535Z,98090.19
2022-07-25T21:57:00.741Z,98102.59
2022-07-25T21:59:27.930Z,98106.06
2022-07-25T22:01:55.118Z,98107.28
2022-07-25T22:04:22.347Z,98124.16
2022-07-25T22:06:49.604Z,98122.31
2022-07-25T22:09:18.455Z,98127.78
2022-07-25T22:11:48.171Z,98140.22
2022-07-25T22:14:15.414Z,98144.69
2022-07-25T22:16:42.767Z,98152.63
2022-07-25T22:19:12.871Z,98153.66
2022-07-25T22:21:40.156Z,98151.00
2022-07-25T22:24:07.336Z,98150.38
2022-07-25T22:26:34.506Z,98157.44
2022-07-25T22:29:01.703Z,98161.94
2022-07-25T22:31:29.034Z,98150.53
2022-07-25T22:33:56.337Z,98159.28
2022-07-25T22:36:23.546Z,98156.84
2022-07-25T22:38:50.918Z,98159.66
2022-07-25T22:41:18.152Z,98160.69
2022-07-25T22:43:57.419Z,98165.75
2022-07-25T22:46:29.088Z,98169.44
2022-07-25T22:48:56.527Z,98171.25
2022-07-25T22:51:26.644Z,98179.41
2022-07-25T22:53:53.901Z,98189.97
2022-07-25T22:56:21.118Z,98185.69
2022-07-25T22:58:51.131Z,98190.16
2022-07-25T23:01:18.388Z,98203.59
2022-07-25T23:03:45.644Z,98218.44
2022-07-25T23:06:12.893Z,98228.22
2022-07-25T23:08:40.073Z,98219.97
2022-07-25T23:11:09.858Z,98227.84
2022-07-25T23:13:37.135Z,98225.94
2022-07-25T23:16:04.415Z,98226.72
2022-07-25T23:18:31.736Z,98229.53
2022-07-25T23:20:58.935Z,98238.84
2022-07-25T23:23:27.191Z,98237.59
2022-07-25T23:25:54.379Z,98238.78
2022-07-25T23:28:21.531Z,98242.63
2022-07-25T23:30:49.842Z,98254.38
2022-07-25T23:33:17.117Z,98251.94
2022-07-25T23:35:49.225Z,98258.63
2022-07-25T23:38:16.465Z,98262.25
2022-07-25T23:40:43.699Z,98264.22
2022-07-25T23:43:10.856Z,98267.03
2022-07-25T23:45:40.762Z,98260.31
2022-07-25T23:48:09.763Z,98258.88
2022-07-25T23:50:37.037Z,98261.72
2022-07-25T23:53:04.750Z,98259.88
2022-07-25T23:55:37.856Z,98254.97
2022-07-25T23:58:05.097Z,98260.25
